createdAt,value
2022-11-04T00:04:32.151Z,4.80
2022-11-04T00:09:30.602Z,4.80
2022-11-04T00:12:17.380Z,4.80
2022-11-04T00:17:22.843Z,4.70
2022-11-04T00:20:12.915Z,4.60
2022-11-04T00:23:00.943Z,4.60
2022-11-04T00:28:36.254Z,4.50
2022-11-04T00:31:25.249Z,4.50
2022-11-04T00:33:54.170Z,4.40
2022-11-04T00:36:23.965Z,4.40
2022-11-04T00:41:30.264Z,4.50
2022-11-04T00:44:02.913Z,4.50
2022-11-04T00:46:32.546Z,4.50
2022-11-04T00:49:00.523Z,4.60
2022-11-04T00:51:28.114Z,4.60
2022-11-04T00:53:58.196Z,4.60
2022-11-04T00:58:53.677Z,4.40
2022-11-04T01:01:22.007Z,4.30
2022-11-04T01:03:52.157Z,4.20
2022-11-04T01:06:21.022Z,4.10
2022-11-04T01:08:49.423Z,4.10
2022-11-04T01:11:17.089Z,4.00
2022-11-04T01:13:44.597Z,4.00
2022-11-04T01:18:41.541Z,3.90
2022-11-04T01:21:12.945Z,3.80
2022-11-04T01:23:41.908Z,3.90
2022-11-04T01:26:21.855Z,3.90
2022-11-04T01:31:25.785Z,4.10
2022-11-04T01:33:54.368Z,4.20
2022-11-04T01:46:43.424Z,4.20
2022-11-04T01:49:26.040Z,4.00
2022-11-04T01:52:03.359Z,4.00
2022-11-04T01:57:00.647Z,3.90
2022-11-04T01:59:32.999Z,3.80
2022-11-04T02:04:30.222Z,3.70
2022-11-04T02:07:01.484Z,3.60
2022-11-04T02:09:31.369Z,3.50
2022-11-04T02:12:17.693Z,3.40
2022-11-04T02:14:47.936Z,3.40
2022-11-04T02:20:00.224Z,3.30
2022-11-04T02:22:39.731Z,3.30
2022-11-04T02:25:31.249Z,3.20
2022-11-04T02:28:10.781Z,3.20
2022-11-04T02:30:50.501Z,3.20
2022-11-04T02:33:27.882Z,3.20
2022-11-04T02:36:09.582Z,3.10
2022-11-04T02:38:59.542Z,3.10
2022-11-04T02:41:35.223Z,3.10
2022-11-04T02:44:11.796Z,3.10
2022-11-04T02:46:47.256Z,3.00
2022-11-04T02:49:20.291Z,2.90
2022-11-04T02:52:03.170Z,2.80
2022-11-04T02:54:44.081Z,2.80
2022-11-04T02:57:17.307Z,2.80
2022-11-04T03:00:01.461Z,2.70
2022-11-04T03:02:36.066Z,2.70
2022-11-04T03:05:06.105Z,2.60
2022-11-04T03:07:37.832Z,2.60
2022-11-04T03:10:16.860Z,2.60
2022-11-04T03:12:54.847Z,2.60
2022-11-04T03:15:28.981Z,2.60
2022-11-04T03:18:15.338Z,2.60
2022-11-04T03:23:13.712Z,2.50
2022-11-04T03:25:45.863Z,2.50
2022-11-04T03:28:34.315Z,2.40
2022-11-04T03:31:04.845Z,2.30
2022-11-04T03:33:45.907Z,2.30
2022-11-04T03:36:13.604Z,2.20
2022-11-04T03:38:41.270Z,2.20
2022-11-04T03:41:18.430Z,2.20
2022-11-04T03:46:13.994Z,2.10
2022-11-04T03:48:42.959Z,2.30
2022-11-04T03:53:38.600Z,2.30
2022-11-04T03:56:09.139Z,2.30
2022-11-04T03:58:39.318Z,2.30
2022-11-04T04:01:34.022Z,2.20
2022-11-04T04:04:14.891Z,2.20
2022-11-04T04:06:45.238Z,2.20
2022-11-04T04:09:31.475Z,2.20
2022-11-04T04:12:10.285Z,2.20
2022-11-04T04:14:45.025Z,2.20
2022-11-04T04:17:44.592Z,2.10
2022-11-04T04:20:23.426Z,2.10
2022-11-04T04:23:25.492Z,2.00
2022-11-04T04:26:13.263Z,2.00
2022-11-04T04:31:11.682Z,1.90
2022-11-04T04:33:39.388Z,1.90
2022-11-04T04:36:09.814Z,1.90
2022-11-04T04:38:59.857Z,1.80
2022-11-04T04:41:48.967Z,1.80
2022-11-04T04:44:44.161Z,1.80
2022-11-04T04:47:20.114Z,1.70
2022-11-04T04:49:59.154Z,1.70
2022-11-04T04:52:32.350Z,1.80
2022-11-04T04:59:55.708Z,2.00
2022-11-04T05:04:51.157Z,2.10
2022-11-04T05:09:46.382Z,2.30
2022-11-04T05:12:13.941Z,2.80
2022-11-04T05:14:41.692Z,3.10
2022-11-04T05:17:09.429Z,3.30
2022-11-04T05:29:28.522Z,3.80
2022-11-04T05:44:15.823Z,3.70
2022-11-04T05:54:07.071Z,3.10
2022-11-04T06:01:41.490Z,2.60
2022-11-04T06:04:14.891Z,2.60
2022-11-04T06:09:10.844Z,2.80
2022-11-04T06:11:38.982Z,3.40
2022-11-04T06:16:34.383Z,3.60
2022-11-04T06:24:05.153Z,3.60
2022-11-04T06:26:32.661Z,3.70
2022-11-04T06:29:00.125Z,3.80
2022-11-04T06:43:47.787Z,3.20
2022-11-04T06:46:37.573Z,3.00
2022-11-04T06:49:13.109Z,2.80
2022-11-04T06:56:36.759Z,2.60
2022-11-04T06:59:04.906Z,2.60
2022-11-04T07:01:34.422Z,4.60
2022-11-04T07:04:03.294Z,2.50
2022-11-04T07:06:31.554Z,2.50
2022-11-04T07:09:00.147Z,2.50
2022-11-04T07:11:29.440Z,2.40
2022-11-04T07:18:55.019Z,2.20
2022-11-04T07:21:23.108Z,2.00
2022-11-04T07:23:50.893Z,1.90
2022-11-04T07:26:18.414Z,1.80
2022-11-04T07:31:14.830Z,1.70
2022-11-04T07:36:13.667Z,1.70
2022-11-04T07:38:41.184Z,1.70
2022-11-04T07:46:07.278Z,1.70
2022-11-04T07:48:36.697Z,1.70
2022-11-04T07:51:06.223Z,1.70
2022-11-04T07:53:34.376Z,1.70
2022-11-04T07:56:08.372Z,2.50
2022-11-04T07:58:35.894Z,1.80
2022-11-04T08:01:16.323Z,1.80
2022-11-04T08:03:44.064Z,1.70
2022-11-04T08:06:15.638Z,2.00
2022-11-04T08:08:43.808Z,2.10
2022-11-04T08:11:17.483Z,2.10
2022-11-04T08:13:46.482Z,2.30
2022-11-04T08:16:19.963Z,2.40
2022-11-04T08:21:16.759Z,2.60
2022-11-04T08:26:16.677Z,2.90
2022-11-04T08:31:36.010Z,3.10
2022-11-04T08:36:36.851Z,3.30
2022-11-04T08:39:10.375Z,3.40
2022-11-04T08:41:41.168Z,3.50
2022-11-04T08:44:09.312Z,3.60
2022-11-04T08:46:39.588Z,3.80
2022-11-04T08:51:42.302Z,4.50
2022-11-04T08:54:10.831Z,4.80
2022-11-04T08:56:40.183Z,5.10
2022-11-04T08:59:08.509Z,5.30
2022-11-04T09:01:37.301Z,5.50
2022-11-04T09:04:05.888Z,5.80
2022-11-04T09:06:38.640Z,6.00
2022-11-04T09:09:07.965Z,6.20
2022-11-04T09:11:39.280Z,6.30
2022-11-04T09:14:07.047Z,6.40
2022-11-04T09:16:36.085Z,6.50
2022-11-04T09:21:31.775Z,6.60
2022-11-04T09:26:27.441Z,6.80
2022-11-04T09:28:57.659Z,6.90
2022-11-04T09:31:27.407Z,7.10
2022-11-04T09:33:56.086Z,7.20
2022-11-04T09:38:52.205Z,7.40
2022-11-04T09:41:49.160Z,7.50
2022-11-04T09:44:32.174Z,7.60
2022-11-04T09:47:03.085Z,7.60
2022-11-04T09:49:36.454Z,7.60
2022-11-04T09:52:14.570Z,7.80
2022-11-04T09:54:47.435Z,7.80
2022-11-04T09:57:19.978Z,7.90
2022-11-04T10:02:34.698Z,8.00
2022-11-04T10:05:20.125Z,8.00
2022-11-04T10:08:18.043Z,8.10
2022-11-04T10:11:00.507Z,8.20
2022-11-04T10:16:13.138Z,8.30
2022-11-04T10:18:40.842Z,8.60
2022-11-04T10:21:14.174Z,8.70
2022-11-04T10:24:01.628Z,8.80
2022-11-04T10:26:32.319Z,8.90
2022-11-04T10:29:06.987Z,9.10
2022-11-04T10:31:38.674Z,9.20
2022-11-04T10:34:15.143Z,9.30
2022-11-04T10:39:19.050Z,9.60
2022-11-04T10:41:47.642Z,9.80
2022-11-04T10:44:26.960Z,9.90
2022-11-04T10:47:00.435Z,9.90
2022-11-04T10:50:28.363Z,9.90
2022-11-04T10:53:13.172Z,9.70
2022-11-04T10:55:49.639Z,9.60
2022-11-04T10:58:33.024Z,9.50
2022-11-04T11:03:35.017Z,9.40
2022-11-04T11:06:12.190Z,9.40
2022-11-04T11:08:40.970Z,9.30
2022-11-04T11:11:09.622Z,9.30
2022-11-04T11:13:40.071Z,9.30
2022-11-04T11:16:26.370Z,9.40
2022-11-04T11:19:12.402Z,9.50
2022-11-04T11:21:45.528Z,9.60
2022-11-04T11:24:31.046Z,9.40
2022-11-04T11:27:11.640Z,9.90
2022-11-04T11:29:42.205Z,10.30
2022-11-04T11:32:30.535Z,10.40
2022-11-04T11:35:02.343Z,10.50
2022-11-04T11:37:32.458Z,10.60
2022-11-04T11:40:00.118Z,10.70
2022-11-04T11:44:58.147Z,10.50
2022-11-04T11:50:20.071Z,10.30
2022-11-04T11:52:49.419Z,10.20
2022-11-04T11:55:23.179Z,10.20
2022-11-04T12:09:58.312Z,10.30
2022-11-04T12:12:44.734Z,10.30
2022-11-04T12:15:29.875Z,10.40
2022-11-04T12:18:27.488Z,10.40
2022-11-04T12:21:04.773Z,10.40
2022-11-04T12:23:35.422Z,10.50
2022-11-04T12:26:39.463Z,10.50
2022-11-04T12:29:06.946Z,10.40
2022-11-04T12:31:55.591Z,10.30
2022-11-04T12:36:58.930Z,10.20
2022-11-04T12:39:57.183Z,10.20
2022-11-04T12:42:56.656Z,10.20
2022-11-04T12:45:25.075Z,10.20
2022-11-04T12:48:00.060Z,10.20
2022-11-04T12:50:46.816Z,10.30
2022-11-04T12:53:29.926Z,10.40
2022-11-04T12:56:19.300Z,10.40
2022-11-04T13:01:30.510Z,10.70
2022-11-04T13:04:12.799Z,10.90
2022-11-04T13:06:45.799Z,11.10
2022-11-04T13:09:31.732Z,11.10
2022-11-04T13:12:06.521Z,11.10
2022-11-04T13:14:46.850Z,11.00
2022-11-04T13:17:18.911Z,11.00
2022-11-04T13:19:54.903Z,11.00
2022-11-04T13:22:31.437Z,11.20
2022-11-04T13:25:05.076Z,11.20
2022-11-04T13:27:39.304Z,11.30
2022-11-04T13:30:50.003Z,11.30
2022-11-04T13:36:13.561Z,11.40
2022-11-04T13:38:46.026Z,11.60
2022-11-04T13:41:25.819Z,11.70
2022-11-04T13:43:57.952Z,12.00
2022-11-04T13:46:32.072Z,12.10
2022-11-04T13:49:04.338Z,12.10
2022-11-04T13:51:46.639Z,12.30
2022-11-04T13:54:42.799Z,12.30
2022-11-04T13:57:17.808Z,12.30
2022-11-04T14:00:12.504Z,12.20
2022-11-04T14:02:42.988Z,12.20
2022-11-04T14:05:37.054Z,12.10
2022-11-04T14:10:46.010Z,12.00
2022-11-04T14:13:32.587Z,12.10
2022-11-04T14:16:24.077Z,12.00
2022-11-04T14:18:53.706Z,12.00
2022-11-04T14:21:22.047Z,12.00
2022-11-04T14:23:51.804Z,12.00
2022-11-04T14:26:42.840Z,11.90
2022-11-04T14:31:52.696Z,11.80
2022-11-04T14:34:37.622Z,11.80
2022-11-04T14:37:25.273Z,11.90
2022-11-04T14:39:59.588Z,11.90
2022-11-04T14:42:53.687Z,11.80
2022-11-04T14:45:28.730Z,11.90
2022-11-04T14:48:01.604Z,12.00
2022-11-04T14:50:29.127Z,12.10
2022-11-04T14:53:00.021Z,12.10
2022-11-04T14:55:30.095Z,12.10
2022-11-04T14:58:19.875Z,12.00
2022-11-04T15:00:50.467Z,11.90
2022-11-04T15:04:04.551Z,11.80
2022-11-04T15:06:11.177Z,11.60
2022-11-04T15:08:41.642Z,11.60
2022-11-04T15:11:39.449Z,11.60
2022-11-04T15:14:17.205Z,11.60
2022-11-04T15:16:48.364Z,11.60
2022-11-04T15:19:34.140Z,11.60
2022-11-04T15:22:04.195Z,11.70
2022-11-04T15:24:32.101Z,11.60
2022-11-04T15:27:06.160Z,11.60
2022-11-04T15:29:33.896Z,11.60
2022-11-04T15:32:05.215Z,11.50
2022-11-04T15:34:35.783Z,11.50
2022-11-04T15:37:05.549Z,11.60
2022-11-04T15:39:46.517Z,11.50
2022-11-04T15:42:37.235Z,11.50
2022-11-04T15:45:22.862Z,11.50
2022-11-04T15:48:25.789Z,11.40
2022-11-04T15:51:14.518Z,11.30
2022-11-04T15:53:57.643Z,11.20
2022-11-04T15:56:28.952Z,11.00
2022-11-04T15:58:58.519Z,11.00
2022-11-04T16:01:29.284Z,10.80
2022-11-04T16:03:59.560Z,10.70
2022-11-04T16:06:39.675Z,10.60
2022-11-04T16:09:25.818Z,10.50
2022-11-04T16:12:14.906Z,10.40
2022-11-04T16:14:53.519Z,10.30
2022-11-04T16:17:22.621Z,10.20
2022-11-04T16:20:05.246Z,10.10
2022-11-04T16:22:38.942Z,10.00
2022-11-04T16:25:12.405Z,10.00
2022-11-04T16:27:40.112Z,9.90
2022-11-04T16:30:19.543Z,9.80
2022-11-04T16:32:49.426Z,9.70
2022-11-04T16:35:26.425Z,9.70
2022-11-04T16:37:56.086Z,9.50
2022-11-04T16:40:24.701Z,9.30
2022-11-04T16:42:53.641Z,9.40
2022-11-04T16:45:28.085Z,9.30
2022-11-04T16:47:56.062Z,9.20
2022-11-04T16:50:24.813Z,9.10
2022-11-04T16:55:23.357Z,9.00
2022-11-04T16:58:02.942Z,9.00
2022-11-04T17:00:33.291Z,8.90
2022-11-04T17:03:04.955Z,8.80
2022-11-04T17:05:32.576Z,8.80
2022-11-04T17:08:04.888Z,8.70
2022-11-04T17:10:36.356Z,8.80
2022-11-04T17:15:31.902Z,8.90
2022-11-04T17:17:59.669Z,8.90
2022-11-04T17:20:27.279Z,9.00
2022-11-04T17:22:54.780Z,9.10
2022-11-04T17:25:25.514Z,9.10
2022-11-04T17:27:53.199Z,9.20
2022-11-04T17:30:22.181Z,9.30
2022-11-04T17:32:50.482Z,9.30
2022-11-04T17:35:18.229Z,9.30
2022-11-04T17:37:45.791Z,9.40
2022-11-04T17:40:18.406Z,9.40
2022-11-04T17:43:10.428Z,9.40
2022-11-04T17:45:40.707Z,9.50
2022-11-04T17:50:39.324Z,9.50
2022-11-04T17:53:07.742Z,9.50
2022-11-04T17:55:40.698Z,9.60
2022-11-04T17:58:08.749Z,9.50
2022-11-04T18:00:36.250Z,9.60
2022-11-04T18:03:04.177Z,9.50
2022-11-04T18:05:31.875Z,9.60
2022-11-04T18:08:01.653Z,9.50
2022-11-04T18:12:57.127Z,9.60
2022-11-04T18:17:53.128Z,9.50
2022-11-04T18:20:20.618Z,9.50
2022-11-04T18:22:48.180Z,9.40
2022-11-04T18:25:15.925Z,9.40
2022-11-04T18:27:43.528Z,9.40
2022-11-04T18:30:11.860Z,9.40
2022-11-04T18:32:39.532Z,9.30
2022-11-04T18:47:26.949Z,9.10
2022-11-04T18:49:54.969Z,9.00
2022-11-04T18:52:22.488Z,9.00
2022-11-04T18:57:17.782Z,9.00
2022-11-04T18:59:46.155Z,5.20
2022-11-04T19:02:23.504Z,9.00
2022-11-04T19:07:19.596Z,9.00
2022-11-04T19:12:35.034Z,8.80
2022-11-04T19:20:00.284Z,8.80
2022-11-04T19:29:52.967Z,8.80
2022-11-04T19:32:21.140Z,8.80
2022-11-04T19:37:17.238Z,8.70
2022-11-04T19:44:59.777Z,8.50
2022-11-04T19:54:51.263Z,8.30
2022-11-04T19:57:18.913Z,8.30
2022-11-04T19:59:46.445Z,8.30
2022-11-04T20:02:15.309Z,8.30
2022-11-04T20:07:11.253Z,8.40
2022-11-04T20:12:26.327Z,8.50
2022-11-04T20:14:57.539Z,8.50
2022-11-04T20:29:44.571Z,8.70
2022-11-04T20:32:12.492Z,8.70
2022-11-04T20:37:07.983Z,8.60
2022-11-04T20:39:35.635Z,8.70
2022-11-04T20:42:04.054Z,8.60
2022-11-04T20:44:31.457Z,8.60
2022-11-04T20:46:59.883Z,8.50
2022-11-04T20:51:55.891Z,8.50
2022-11-04T20:54:23.599Z,8.50
2022-11-04T20:59:18.999Z,8.50
2022-11-04T21:01:48.335Z,8.50
2022-11-04T21:04:19.070Z,8.60
2022-11-04T21:06:49.274Z,8.50
2022-11-04T21:09:18.482Z,8.60
2022-11-04T21:11:46.759Z,8.60
2022-11-04T21:14:15.195Z,8.60
2022-11-04T21:16:43.812Z,8.60
2022-11-04T21:21:42.578Z,8.60
2022-11-04T21:24:12.921Z,8.60
2022-11-04T21:26:40.781Z,8.60
2022-11-04T21:29:11.057Z,8.60
2022-11-04T21:31:39.393Z,8.60
2022-11-04T21:34:07.487Z,8.60
2022-11-04T21:39:03.177Z,8.70
2022-11-04T21:41:37.436Z,10.60
2022-11-04T21:44:08.734Z,8.70
2022-11-04T21:49:04.828Z,8.70
2022-11-04T21:51:34.446Z,10.90
2022-11-04T21:54:05.544Z,8.70
2022-11-04T21:59:01.966Z,8.70
2022-11-04T22:01:31.100Z,8.80
2022-11-04T22:04:01.123Z,8.70
2022-11-04T22:06:34.508Z,8.70
2022-11-04T22:09:06.592Z,8.80
2022-11-04T22:11:37.277Z,8.80
2022-11-04T22:14:07.482Z,8.80
2022-11-04T22:16:38.723Z,8.80
2022-11-04T22:19:10.302Z,8.70
2022-11-04T22:21:40.320Z,8.80
2022-11-04T22:24:14.454Z,8.80
2022-11-04T22:26:42.641Z,8.80
2022-11-04T22:29:10.506Z,8.80
2022-11-04T22:31:39.578Z,6.50
2022-11-04T22:41:31.908Z,8.70
2022-11-04T22:46:28.865Z,8.60
2022-11-04T22:48:56.819Z,8.60
2022-11-04T22:54:00.051Z,8.60
2022-11-04T22:56:30.638Z,8.60
2022-11-04T22:59:00.400Z,8.50
2022-11-04T23:03:56.891Z,8.50
2022-11-04T23:06:25.030Z,8.50
2022-11-04T23:08:59.713Z,8.30
2022-11-04T23:11:48.638Z,8.40
2022-11-04T23:14:54.295Z,8.30
2022-11-04T23:17:41.764Z,8.30
2022-11-04T23:20:12.711Z,8.20
2022-11-04T23:30:47.158Z,8.30
2022-11-04T23:33:15.941Z,8.20
2022-11-04T23:36:07.715Z,8.30
2022-11-04T23:38:35.527Z,8.30
2022-11-04T23:41:24.893Z,8.30
2022-11-04T23:43:52.896Z,8.40
2022-11-04T23:49:45.127Z,8.30
2022-11-04T23:52:31.428Z,8.50
2022-11-04T23:55:18.172Z,8.50
2022-11-04T23:58:04.307Z,8.50
